CFG8DC EDDF-LEPA
Flight info
| Callsign | CFG8DC |
|---|---|
| Flight time | N/A |
| Altitude | 35000 |
| Route | ANEKI2L/18 ANEKI Y163 HERBI Y164 MOPAN DCT LUTIX DCT BENOT DCT NEMOS DCT GEVEA DCT INCUS DCT BALSI DCT RETNO DCT TUPOX DCT MTG DCT DIVKO DCT VATIR DCT PIVUS N852 VERSO L129 LUNIK |
| Aircraft | A21N/M-SBDE3FGHIJ1J4J7LORVWXYZ/SB2D1G1 |
Departure
| Time | 2026-05-05 08:58 |
|---|---|
| Airport | Frankfurt Main Airport (EDDF) |
Arrival
| Time | N/A |
|---|---|
| Airport | Palma de Mallorca Airport (LEPA) |
| Time | Latitude | Longitude | Altitude | Speed | Heading |
|---|---|---|---|---|---|
| 2026-05-05 08:15 | 50.04941 | 8.58936 | 373 ft | 0 kts | 161° |
| 2026-05-05 08:37 | 50.04941 | 8.58935 | 373 ft | 1 kts | 161° |
| 2026-05-05 08:38 | 50.04955 | 8.58928 | 373 ft | 2 kts | 160° |
| 2026-05-05 08:38 | 50.04969 | 8.58920 | 373 ft | 2 kts | 161° |
| 2026-05-05 08:38 | 50.04983 | 8.58912 | 373 ft | 2 kts | 161° |
| 2026-05-05 08:38 | 50.04998 | 8.58906 | 373 ft | 2 kts | 184° |
| 2026-05-05 08:39 | 50.05013 | 8.58912 | 373 ft | 2 kts | 207° |
| 2026-05-05 08:39 | 50.05025 | 8.58926 | 373 ft | 2 kts | 232° |
| 2026-05-05 08:39 | 50.05032 | 8.58947 | 373 ft | 2 kts | 255° |
| 2026-05-05 08:39 | 50.05036 | 8.58968 | 373 ft | 2 kts | 249° |
| 2026-05-05 08:40 | 50.05042 | 8.58990 | 373 ft | 2 kts | 250° |
| 2026-05-05 08:40 | 50.05044 | 8.58999 | 373 ft | 0 kts | 250° |
| 2026-05-05 08:42 | 50.05042 | 8.58988 | 373 ft | 2 kts | 250° |
| 2026-05-05 08:42 | 50.05032 | 8.58950 | 373 ft | 4 kts | 249° |
| 2026-05-05 08:42 | 50.05017 | 8.58889 | 373 ft | 7 kts | 249° |
| 2026-05-05 08:43 | 50.04993 | 8.58791 | 373 ft | 11 kts | 250° |
| 2026-05-05 08:43 | 50.04963 | 8.58664 | 373 ft | 13 kts | 250° |
| 2026-05-05 08:43 | 50.04931 | 8.58528 | 373 ft | 13 kts | 250° |
| 2026-05-05 08:43 | 50.04899 | 8.58390 | 373 ft | 13 kts | 250° |
| 2026-05-05 08:44 | 50.04865 | 8.58254 | 373 ft | 13 kts | 250° |
| 2026-05-05 08:44 | 50.04832 | 8.58115 | 373 ft | 13 kts | 250° |
| 2026-05-05 08:44 | 50.04797 | 8.57976 | 373 ft | 13 kts | 239° |
| 2026-05-05 08:44 | 50.04719 | 8.57899 | 373 ft | 13 kts | 220° |
| 2026-05-05 08:45 | 50.04676 | 8.57769 | 373 ft | 14 kts | 250° |
| 2026-05-05 08:45 | 50.04638 | 8.57610 | 373 ft | 15 kts | 250° |
| 2026-05-05 08:45 | 50.04599 | 8.57448 | 373 ft | 15 kts | 250° |
| 2026-05-05 08:45 | 50.04562 | 8.57290 | 373 ft | 15 kts | 250° |
| 2026-05-05 08:46 | 50.04525 | 8.57134 | 373 ft | 15 kts | 250° |
| 2026-05-05 08:46 | 50.04487 | 8.56979 | 373 ft | 15 kts | 250° |
| 2026-05-05 08:46 | 50.04449 | 8.56819 | 373 ft | 16 kts | 250° |
| 2026-05-05 08:46 | 50.04409 | 8.56648 | 373 ft | 17 kts | 249° |
| 2026-05-05 08:47 | 50.04366 | 8.56469 | 373 ft | 17 kts | 250° |
| 2026-05-05 08:47 | 50.04323 | 8.56292 | 373 ft | 17 kts | 250° |
| 2026-05-05 08:47 | 50.04282 | 8.56121 | 373 ft | 16 kts | 250° |
| 2026-05-05 08:47 | 50.04243 | 8.55953 | 373 ft | 16 kts | 250° |
| 2026-05-05 08:48 | 50.04201 | 8.55780 | 373 ft | 18 kts | 250° |
| 2026-05-05 08:48 | 50.04153 | 8.55577 | 373 ft | 21 kts | 250° |
| 2026-05-05 08:48 | 50.04100 | 8.55356 | 373 ft | 22 kts | 250° |
| 2026-05-05 08:48 | 50.04047 | 8.55139 | 373 ft | 20 kts | 250° |
| 2026-05-05 08:49 | 50.03998 | 8.54930 | 373 ft | 20 kts | 250° |
| 2026-05-05 08:49 | 50.03951 | 8.54734 | 373 ft | 19 kts | 250° |
| 2026-05-05 08:49 | 50.03905 | 8.54541 | 373 ft | 18 kts | 250° |
| 2026-05-05 08:49 | 50.03856 | 8.54363 | 373 ft | 17 kts | 238° |
| 2026-05-05 08:50 | 50.03795 | 8.54199 | 373 ft | 17 kts | 247° |
| 2026-05-05 08:50 | 50.03754 | 8.54026 | 373 ft | 16 kts | 250° |
| 2026-05-05 08:50 | 50.03713 | 8.53857 | 372 ft | 16 kts | 250° |
| 2026-05-05 08:50 | 50.03673 | 8.53691 | 372 ft | 16 kts | 250° |
| 2026-05-05 08:51 | 50.03632 | 8.53528 | 372 ft | 15 kts | 249° |
| 2026-05-05 08:51 | 50.03593 | 8.53368 | 372 ft | 15 kts | 250° |
| 2026-05-05 08:51 | 50.03556 | 8.53210 | 372 ft | 15 kts | 250° |
| 2026-05-05 08:51 | 50.03518 | 8.53054 | 372 ft | 15 kts | 250° |
| 2026-05-05 08:52 | 50.03480 | 8.52900 | 372 ft | 15 kts | 246° |
| 2026-05-05 08:52 | 50.03439 | 8.52750 | 372 ft | 15 kts | 249° |
| 2026-05-05 08:52 | 50.03408 | 8.52627 | 372 ft | 8 kts | 244° |
| 2026-05-05 08:52 | 50.03348 | 8.52590 | 372 ft | 18 kts | 181° |
| 2026-05-05 08:53 | 50.03063 | 8.52592 | 372 ft | 32 kts | 180° |
| 2026-05-05 08:53 | 50.03025 | 8.52593 | 372 ft | 0 kts | 179° |
| 2026-05-05 08:54 | 50.03020 | 8.52593 | 372 ft | 1 kts | 179° |
| 2026-05-05 08:54 | 50.02997 | 8.52594 | 372 ft | 4 kts | 179° |
| 2026-05-05 08:54 | 50.02961 | 8.52608 | 372 ft | 6 kts | 143° |
| 2026-05-05 08:55 | 50.02939 | 8.52679 | 372 ft | 8 kts | 95° |
| 2026-05-05 08:55 | 50.02944 | 8.52779 | 372 ft | 10 kts | 67° |
| 2026-05-05 08:55 | 50.03005 | 8.52821 | 372 ft | 10 kts | 359° |
| 2026-05-05 08:55 | 50.03081 | 8.52817 | 372 ft | 11 kts | 359° |
| 2026-05-05 08:56 | 50.03160 | 8.52816 | 372 ft | 11 kts | 360° |
| 2026-05-05 08:56 | 50.03234 | 8.52815 | 372 ft | 8 kts | 0° |
| 2026-05-05 08:56 | 50.03278 | 8.52770 | 372 ft | 8 kts | 276° |
| 2026-05-05 08:56 | 50.03268 | 8.52678 | 372 ft | 9 kts | 259° |
| 2026-05-05 08:57 | 50.03253 | 8.52605 | 372 ft | 6 kts | 217° |
| 2026-05-05 08:57 | 50.03157 | 8.52591 | 372 ft | 37 kts | 180° |
| 2026-05-05 08:57 | 50.02647 | 8.52597 | 372 ft | 105 kts | 180° |
| 2026-05-05 08:57 | 50.01710 | 8.52605 | 372 ft | 161 kts | 180° |
| 2026-05-05 08:58 | 50.00497 | 8.52624 | 623 ft | 182 kts | 180° |
| 2026-05-05 08:58 | 49.99235 | 8.52657 | 1223 ft | 182 kts | 179° |
| 2026-05-05 08:58 | 49.97967 | 8.52727 | 1860 ft | 184 kts | 179° |
| 2026-05-05 08:58 | 49.96680 | 8.52835 | 2347 ft | 191 kts | 178° |
| 2026-05-05 08:59 | 49.95301 | 8.52944 | 2653 ft | 207 kts | 178° |
| 2026-05-05 08:59 | 49.93800 | 8.53061 | 2967 ft | 224 kts | 178° |
| 2026-05-05 08:59 | 49.92180 | 8.53129 | 3244 ft | 244 kts | 182° |
| 2026-05-05 08:59 | 49.90420 | 8.52995 | 3635 ft | 260 kts | 185° |
| 2026-05-05 09:00 | 49.88588 | 8.52809 | 4208 ft | 268 kts | 185° |
| 2026-05-05 09:00 | 49.86731 | 8.52625 | 4960 ft | 269 kts | 184° |
| 2026-05-05 09:00 | 49.84881 | 8.52451 | 5719 ft | 269 kts | 184° |
| 2026-05-05 09:00 | 49.83001 | 8.52284 | 6475 ft | 270 kts | 183° |
| 2026-05-05 09:01 | 49.81153 | 8.52126 | 7188 ft | 271 kts | 183° |
| 2026-05-05 09:01 | 49.79539 | 8.51990 | 7793 ft | 272 kts | 183° |
| 2026-05-05 09:01 | 49.79533 | 8.51990 | 7795 ft | 272 kts | 183° |
| 2026-05-05 09:01 | 49.78413 | 8.51896 | 8194 ft | 273 kts | 183° |
| 2026-05-05 09:02 | 49.76519 | 8.51738 | 8844 ft | 276 kts | 183° |
| 2026-05-05 09:02 | 49.74603 | 8.51580 | 9484 ft | 277 kts | 183° |
| 2026-05-05 09:02 | 49.72674 | 8.51421 | 10123 ft | 279 kts | 184° |
| 2026-05-05 09:02 | 49.70708 | 8.51259 | 10468 ft | 291 kts | 184° |
| 2026-05-05 09:03 | 49.68628 | 8.51087 | 10740 ft | 306 kts | 184° |
| 2026-05-05 09:03 | 49.66467 | 8.50909 | 10995 ft | 320 kts | 184° |
| 2026-05-05 09:03 | 49.64202 | 8.50722 | 11241 ft | 333 kts | 184° |
| 2026-05-05 09:03 | 49.61832 | 8.50528 | 11553 ft | 344 kts | 184° |
| 2026-05-05 09:04 | 49.59449 | 8.50332 | 12048 ft | 348 kts | 184° |
| 2026-05-05 09:04 | 49.57014 | 8.50131 | 12602 ft | 350 kts | 184° |
| 2026-05-05 09:04 | 49.54571 | 8.49931 | 13135 ft | 352 kts | 184° |
| 2026-05-05 09:04 | 49.52143 | 8.49733 | 13637 ft | 355 kts | 184° |
| 2026-05-05 09:05 | 49.49657 | 8.49528 | 14154 ft | 357 kts | 184° |
| 2026-05-05 09:05 | 49.47166 | 8.49325 | 14662 ft | 359 kts | 184° |
| 2026-05-05 09:05 | 49.44694 | 8.49121 | 15148 ft | 361 kts | 184° |
| 2026-05-05 09:05 | 49.42179 | 8.48915 | 15633 ft | 363 kts | 184° |
| 2026-05-05 09:06 | 49.39651 | 8.48665 | 16121 ft | 364 kts | 187° |
| 2026-05-05 09:06 | 49.37161 | 8.48023 | 16579 ft | 366 kts | 191° |
| 2026-05-05 09:06 | 49.34658 | 8.47237 | 17024 ft | 368 kts | 191° |
| 2026-05-05 09:06 | 49.32159 | 8.46447 | 17476 ft | 370 kts | 191° |
| 2026-05-05 09:07 | 49.29612 | 8.45646 | 17918 ft | 371 kts | 191° |
| 2026-05-05 09:07 | 49.27090 | 8.44865 | 18336 ft | 372 kts | 190° |
| 2026-05-05 09:07 | 49.24546 | 8.44113 | 18692 ft | 375 kts | 190° |
| 2026-05-05 09:07 | 49.21980 | 8.43370 | 19054 ft | 378 kts | 190° |
| 2026-05-05 09:08 | 49.19403 | 8.42625 | 19400 ft | 381 kts | 190° |
| 2026-05-05 09:08 | 49.16784 | 8.41866 | 19753 ft | 383 kts | 190° |
| 2026-05-05 09:08 | 49.14156 | 8.41103 | 20106 ft | 386 kts | 190° |
| 2026-05-05 09:08 | 49.11534 | 8.40342 | 20444 ft | 388 kts | 190° |
| 2026-05-05 09:09 | 49.08855 | 8.39564 | 20775 ft | 390 kts | 190° |
| 2026-05-05 09:09 | 49.06204 | 8.38794 | 21104 ft | 392 kts | 190° |
| 2026-05-05 09:09 | 49.03506 | 8.38012 | 21441 ft | 394 kts | 190° |
| 2026-05-05 09:09 | 49.00804 | 8.37232 | 21755 ft | 396 kts | 190° |
| 2026-05-05 09:10 | 48.98117 | 8.36455 | 22071 ft | 398 kts | 191° |
| 2026-05-05 09:10 | 48.95393 | 8.35669 | 22357 ft | 400 kts | 191° |
| 2026-05-05 09:10 | 48.92644 | 8.34876 | 22665 ft | 402 kts | 190° |
| 2026-05-05 09:10 | 48.89891 | 8.34083 | 22944 ft | 404 kts | 190° |
| 2026-05-05 09:11 | 48.87133 | 8.33289 | 23230 ft | 405 kts | 190° |
| 2026-05-05 09:11 | 48.84372 | 8.32495 | 23520 ft | 407 kts | 190° |
| 2026-05-05 09:11 | 48.81563 | 8.31685 | 23835 ft | 408 kts | 190° |
| 2026-05-05 09:11 | 48.78804 | 8.30889 | 24138 ft | 409 kts | 190° |
| 2026-05-05 09:12 | 48.75997 | 8.30080 | 24434 ft | 410 kts | 190° |
| 2026-05-05 09:12 | 48.73211 | 8.29278 | 24727 ft | 411 kts | 190° |
| 2026-05-05 09:12 | 48.70385 | 8.28464 | 24997 ft | 412 kts | 190° |
| 2026-05-05 09:12 | 48.67571 | 8.27658 | 25274 ft | 413 kts | 191° |
| 2026-05-05 09:13 | 48.64746 | 8.26850 | 25522 ft | 414 kts | 190° |
| 2026-05-05 09:13 | 48.61914 | 8.26043 | 25792 ft | 415 kts | 190° |
| 2026-05-05 09:13 | 48.59064 | 8.25231 | 26044 ft | 416 kts | 190° |
| 2026-05-05 09:13 | 48.56250 | 8.24432 | 26302 ft | 417 kts | 190° |
| 2026-05-05 09:14 | 48.53385 | 8.23618 | 26540 ft | 418 kts | 190° |
| 2026-05-05 09:14 | 48.50518 | 8.22804 | 26761 ft | 419 kts | 190° |
| 2026-05-05 09:14 | 48.47689 | 8.22000 | 26994 ft | 420 kts | 190° |
| 2026-05-05 09:14 | 48.44799 | 8.21180 | 27178 ft | 422 kts | 190° |
| 2026-05-05 09:15 | 48.41914 | 8.20364 | 27398 ft | 423 kts | 190° |
| 2026-05-05 09:15 | 48.38983 | 8.19534 | 27636 ft | 423 kts | 190° |
| 2026-05-05 09:15 | 48.36099 | 8.18720 | 27895 ft | 423 kts | 190° |
| 2026-05-05 09:15 | 48.33208 | 8.17906 | 28194 ft | 421 kts | 189° |
| 2026-05-05 09:16 | 48.30348 | 8.17102 | 28504 ft | 420 kts | 190° |
| 2026-05-05 09:16 | 48.27497 | 8.16140 | 28793 ft | 419 kts | 193° |
| 2026-05-05 09:16 | 48.24707 | 8.14889 | 29099 ft | 419 kts | 197° |
| 2026-05-05 09:16 | 48.21983 | 8.13355 | 29428 ft | 418 kts | 200° |
| 2026-05-05 09:17 | 48.19369 | 8.11577 | 29745 ft | 417 kts | 204° |
| 2026-05-05 09:17 | 48.16774 | 8.09662 | 30045 ft | 416 kts | 204° |
| 2026-05-05 09:17 | 48.14183 | 8.07750 | 30328 ft | 415 kts | 204° |
| 2026-05-05 09:17 | 48.11570 | 8.05821 | 30596 ft | 414 kts | 204° |
| 2026-05-05 09:18 | 48.09006 | 8.03930 | 30868 ft | 413 kts | 204° |
| 2026-05-05 09:18 | 48.06422 | 8.02028 | 31171 ft | 412 kts | 204° |
| 2026-05-05 09:18 | 48.03852 | 8.00135 | 31463 ft | 410 kts | 204° |
| 2026-05-05 09:18 | 48.01313 | 7.98269 | 31767 ft | 408 kts | 204° |
| 2026-05-05 09:19 | 47.98758 | 7.96394 | 32057 ft | 406 kts | 204° |
| 2026-05-05 09:19 | 47.96234 | 7.94544 | 32351 ft | 404 kts | 204° |
| 2026-05-05 09:19 | 47.93750 | 7.92726 | 32646 ft | 403 kts | 204° |
| 2026-05-05 09:19 | 47.91235 | 7.90885 | 32926 ft | 401 kts | 204° |
| 2026-05-05 09:20 | 47.88749 | 7.89069 | 33186 ft | 400 kts | 204° |
| 2026-05-05 09:20 | 47.86255 | 7.87247 | 33459 ft | 399 kts | 204° |
| 2026-05-05 09:20 | 47.83762 | 7.85428 | 33668 ft | 399 kts | 204° |
| 2026-05-05 09:20 | 47.81288 | 7.83625 | 33834 ft | 400 kts | 204° |
| 2026-05-05 09:21 | 47.78787 | 7.81804 | 34025 ft | 400 kts | 204° |
| 2026-05-05 09:21 | 47.76280 | 7.79982 | 34211 ft | 400 kts | 204° |
| 2026-05-05 09:21 | 47.73769 | 7.78161 | 34376 ft | 401 kts | 204° |
| 2026-05-05 09:21 | 47.71284 | 7.76359 | 34579 ft | 400 kts | 204° |